< < Back
Terminal Aerodrome Forecast


Current Version              Previous Versions:   1  2  3  4  5  6  7  8  9  

Terminal Aerodrome Forecast

167
FTUS44 KBMX 261100
TAFBHM
TAF
KBHM 261131Z 2612/2712 VRB03KT P6SM FEW250
     FM261600 26006KT P6SM FEW050=

Latest METAR

979
SAUS70 KWBC 261700 RRC
MTRBHM
METAR KBHM 261653Z 32005KT 10SM FEW250 31/18 A3009 RMK AO2 SLP181
T03060178


USA.gov is the U.S. government's official web portal to all federal, state and local government web resources and services.